sensor_id;sensor_type;location;lat;lon;timestamp;pressure;altitude;pressure_sealevel;temperature;humidity
55759;BME280;41678;52.126;20.664;2022-10-04T00:05:17;100053.56;;;10.04;92.76
55759;BME280;41678;52.126;20.664;2022-10-04T00:10:40;100048.25;;;10.06;93.12
55759;BME280;41678;52.126;20.664;2022-10-04T00:16:00;100044.72;;;10.09;93.32
55759;BME280;41678;52.126;20.664;2022-10-04T00:21:20;100051.72;;;10.10;93.19
55759;BME280;41678;52.126;20.664;2022-10-04T00:43:37;100023.69;;;10.07;93.20
55759;BME280;41678;52.126;20.664;2022-10-04T00:49:02;100019.31;;;10.07;93.57
55759;BME280;41678;52.126;20.664;2022-10-04T00:54:37;100034.19;;;10.09;93.48
55759;BME280;41678;52.126;20.664;2022-10-04T01:00:03;100038.63;;;10.06;93.20
55759;BME280;41678;52.126;20.664;2022-10-04T01:05:35;100026.38;;;10.04;93.32
55759;BME280;41678;52.126;20.664;2022-10-04T01:10:58;100034.31;;;9.99;93.35
55759;BME280;41678;52.126;20.664;2022-10-04T01:16:26;100034.31;;;9.99;93.56
55759;BME280;41678;52.126;20.664;2022-10-04T01:21:58;100025.63;;;9.94;93.62
55759;BME280;41678;52.126;20.664;2022-10-04T01:32:59;100023.00;;;9.94;93.47
55759;BME280;41678;52.126;20.664;2022-10-04T01:38:20;100018.69;;;9.90;93.70
55759;BME280;41678;52.126;20.664;2022-10-04T01:43:41;100022.16;;;9.92;93.58
55759;BME280;41678;52.126;20.664;2022-10-04T01:49:10;100032.75;;;9.86;93.38
55759;BME280;41678;52.126;20.664;2022-10-04T01:54:37;100031.00;;;9.85;93.70
55759;BME280;41678;52.126;20.664;2022-10-04T02:05:30;100032.88;;;9.76;93.60
55759;BME280;41678;52.126;20.664;2022-10-04T02:10:52;100045.13;;;9.76;93.69
55759;BME280;41678;52.126;20.664;2022-10-04T02:16:13;100039.06;;;9.72;93.59
55759;BME280;41678;52.126;20.664;2022-10-04T02:21:35;100039.94;;;9.71;93.46
55759;BME280;41678;52.126;20.664;2022-10-04T02:26:55;100033.84;;;9.66;93.76
55759;BME280;41678;52.126;20.664;2022-10-04T02:32:15;100032.06;;;9.71;93.22
55759;BME280;41678;52.126;20.664;2022-10-04T02:38:02;100043.47;;;9.67;93.23
55759;BME280;41678;52.126;20.664;2022-10-04T02:43:28;100046.09;;;9.67;93.88
55759;BME280;41678;52.126;20.664;2022-10-04T02:48:53;100043.44;;;9.70;93.71
55759;BME280;41678;52.126;20.664;2022-10-04T02:59:47;100044.31;;;9.71;93.83
55759;BME280;41678;52.126;20.664;2022-10-04T03:05:11;100037.28;;;9.73;93.86
55759;BME280;41678;52.126;20.664;2022-10-04T03:10:31;100047.78;;;9.74;93.93
55759;BME280;41678;52.126;20.664;2022-10-04T03:15:54;100056.53;;;9.75;94.11
55759;BME280;41678;52.126;20.664;2022-10-04T03:21:15;100053.84;;;9.80;94.31
55759;BME280;41678;52.126;20.664;2022-10-04T03:26:40;100058.25;;;9.79;93.93
55759;BME280;41678;52.126;20.664;2022-10-04T03:32:03;100054.75;;;9.80;94.34
55759;BME280;41678;52.126;20.664;2022-10-04T03:37:24;100051.28;;;9.76;94.33
55759;BME280;41678;52.126;20.664;2022-10-04T03:42:44;100056.47;;;9.80;94.00
55759;BME280;41678;52.126;20.664;2022-10-04T03:48:07;100058.22;;;9.82;94.43
55759;BME280;41678;52.126;20.664;2022-10-04T03:58:52;100059.13;;;9.80;94.89
55759;BME280;41678;52.126;20.664;2022-10-04T04:10:03;100077.47;;;9.84;94.74
55759;BME280;41678;52.126;20.664;2022-10-04T04:15:28;100080.09;;;9.83;94.50
55759;BME280;41678;52.126;20.664;2022-10-04T04:20:50;100075.72;;;9.82;94.93
55759;BME280;41678;52.126;20.664;2022-10-04T04:26:13;100088.88;;;9.82;94.80
55759;BME280;41678;52.126;20.664;2022-10-04T04:31:58;100093.25;;;9.84;95.25
55759;BME280;41678;52.126;20.664;2022-10-04T04:37:19;100100.28;;;9.82;94.84
55759;BME280;41678;52.126;20.664;2022-10-04T04:42:38;100104.63;;;9.85;95.06
55759;BME280;41678;52.126;20.664;2022-10-04T04:47:59;100105.50;;;9.84;94.90
55759;BME280;41678;52.126;20.664;2022-10-04T04:53:27;100099.41;;;9.82;95.00
55759;BME280;41678;52.126;20.664;2022-10-04T04:58:50;100120.44;;;9.82;94.83
55759;BME280;41678;52.126;20.664;2022-10-04T05:09:36;100120.41;;;9.85;95.24
55759;BME280;41678;52.126;20.664;2022-10-04T05:14:59;100132.69;;;9.84;94.88
55759;BME280;41678;52.126;20.664;2022-10-04T05:20:19;100149.31;;;9.86;95.11
55759;BME280;41678;52.126;20.664;2022-10-04T05:25:39;100139.66;;;9.88;95.14
55759;BME280;41678;52.126;20.664;2022-10-04T05:31:12;100153.66;;;9.92;95.10
55759;BME280;41678;52.126;20.664;2022-10-04T05:42:29;100159.78;;;9.89;95.44
55759;BME280;41678;52.126;20.664;2022-10-04T05:47:59;100172.00;;;9.97;95.24
55759;BME280;41678;52.126;20.664;2022-10-04T05:53:32;100176.34;;;10.02;95.27
55759;BME280;41678;52.126;20.664;2022-10-04T06:38:39;100232.13;;;10.29;96.05
55759;BME280;41678;52.126;20.664;2022-10-04T06:50:49;100253.09;;;10.39;95.92
55759;BME280;41678;52.126;20.664;2022-10-04T06:56:38;100252.19;;;10.44;96.12
55759;BME280;41678;52.126;20.664;2022-10-04T07:02:04;100248.53;;;10.56;96.23
55759;BME280;41678;52.126;20.664;2022-10-04T07:07:41;100256.41;;;10.59;96.48
55759;BME280;41678;52.126;20.664;2022-10-04T07:13:13;100272.19;;;10.62;96.56
55759;BME280;41678;52.126;20.664;2022-10-04T07:18:43;100273.84;;;10.70;96.20
55759;BME280;41678;52.126;20.664;2022-10-04T07:24:08;100278.16;;;10.74;96.13
55759;BME280;41678;52.126;20.664;2022-10-04T07:29:34;100288.69;;;10.77;96.24
55759;BME280;41678;52.126;20.664;2022-10-04T07:45:49;100294.63;;;10.91;95.96
55759;BME280;41678;52.126;20.664;2022-10-04T07:51:32;100298.00;;;11.03;95.48
55759;BME280;41678;52.126;20.664;2022-10-04T07:56:56;100317.28;;;11.05;95.51
55759;BME280;41678;52.126;20.664;2022-10-04T08:13:48;100321.44;;;11.23;95.37
55759;BME280;41678;52.126;20.664;2022-10-04T08:19:14;100326.59;;;11.31;94.93
55759;BME280;41678;52.126;20.664;2022-10-04T08:24:48;100328.19;;;11.43;94.47
55759;BME280;41678;52.126;20.664;2022-10-04T08:30:15;100324.53;;;11.52;94.56
55759;BME280;41678;52.126;20.664;2022-10-04T08:35:47;100327.13;;;11.56;94.58
55759;BME280;41678;52.126;20.664;2022-10-04T09:10:44;100365.31;;;11.90;93.09
55759;BME280;41678;52.126;20.664;2022-10-04T09:16:13;100378.44;;;11.93;93.10
55759;BME280;41678;52.126;20.664;2022-10-04T09:27:36;100370.41;;;12.02;92.13
55759;BME280;41678;52.126;20.664;2022-10-04T10:07:13;100406.81;;;12.37;90.33
55759;BME280;41678;52.126;20.664;2022-10-04T10:30:33;100427.78;;;12.46;89.27
55759;BME280;41678;52.126;20.664;2022-10-04T10:36:17;100428.59;;;12.50;89.31
55759;BME280;41678;52.126;20.664;2022-10-04T10:53:08;100465.44;;;12.57;89.64
55759;BME280;41678;52.126;20.664;2022-10-04T11:38:50;100485.38;;;12.77;88.42
55759;BME280;41678;52.126;20.664;2022-10-04T11:50:40;100486.97;;;12.86;88.52
55759;BME280;41678;52.126;20.664;2022-10-04T11:57:02;100498.38;;;12.88;88.03
55759;BME280;41678;52.126;20.664;2022-10-04T12:02:08;100502.78;;;12.87;87.99
55759;BME280;41678;52.126;20.664;2022-10-04T12:07:42;100520.44;;;12.85;88.11
55759;BME280;41678;52.126;20.664;2022-10-04T12:35:38;100527.44;;;12.89;87.88
55759;BME280;41678;52.126;20.664;2022-10-04T12:41:15;100533.56;;;12.92;87.86
55759;BME280;41678;52.126;20.664;2022-10-04T12:52:15;100549.31;;;12.96;88.17
55759;BME280;41678;52.126;20.664;2022-10-04T12:58:17;100553.63;;;13.02;87.87
55759;BME280;41678;52.126;20.664;2022-10-04T13:15:24;100560.69;;;13.01;87.78
55759;BME280;41678;52.126;20.664;2022-10-04T13:31:51;100564.25;;;13.00;87.76
55759;BME280;41678;52.126;20.664;2022-10-04T13:54:38;100604.91;;;12.92;88.15
55759;BME280;41678;52.126;20.664;2022-10-04T14:07:03;100617.31;;;12.86;88.27
55759;BME280;41678;52.126;20.664;2022-10-04T14:35:34;100622.59;;;12.86;88.34
55759;BME280;41678;52.126;20.664;2022-10-04T14:53:22;100637.53;;;12.89;88.41
55759;BME280;41678;52.126;20.664;2022-10-04T15:04:34;100637.72;;;12.78;88.66
55759;BME280;41678;52.126;20.664;2022-10-04T15:28:38;100664.13;;;12.77;88.89
55759;BME280;41678;52.126;20.664;2022-10-04T15:34:19;100668.63;;;12.70;88.58
55759;BME280;41678;52.126;20.664;2022-10-04T15:56:53;100682.06;;;12.54;88.84
55759;BME280;41678;52.126;20.664;2022-10-04T16:24:58;100709.75;;;12.22;89.25
55759;BME280;41678;52.126;20.664;2022-10-04T16:36:17;100716.09;;;12.06;89.09
55759;BME280;41678;52.126;20.664;2022-10-04T16:41:44;100720.53;;;11.97;89.43
55759;BME280;41678;52.126;20.664;2022-10-04T16:47:28;100732.94;;;11.87;89.18
55759;BME280;41678;52.126;20.664;2022-10-04T17:05:01;100735.00;;;11.56;89.60
55759;BME280;41678;52.126;20.664;2022-10-04T17:10:39;100743.88;;;11.47;89.37
55759;BME280;41678;52.126;20.664;2022-10-04T17:22:13;100745.75;;;11.28;89.77
55759;BME280;41678;52.126;20.664;2022-10-04T17:33:11;100749.38;;;11.11;89.84
55759;BME280;41678;52.126;20.664;2022-10-04T17:39:05;100756.44;;;11.03;89.81
55759;BME280;41678;52.126;20.664;2022-10-04T17:44:53;100753.88;;;10.94;89.63
55759;BME280;41678;52.126;20.664;2022-10-04T17:50:41;100749.53;;;10.86;89.79
55759;BME280;41678;52.126;20.664;2022-10-04T17:57:08;100757.50;;;10.77;89.60
55759;BME280;41678;52.126;20.664;2022-10-04T18:03:10;100763.66;;;10.67;89.75
55759;BME280;41678;52.126;20.664;2022-10-04T18:08:43;100772.47;;;10.56;90.12
55759;BME280;41678;52.126;20.664;2022-10-04T18:14:11;100771.59;;;10.53;90.19
55759;BME280;41678;52.126;20.664;2022-10-04T18:19:40;100783.06;;;10.45;90.15
55759;BME280;41678;52.126;20.664;2022-10-04T18:25:17;100784.81;;;10.42;90.24
55759;BME280;41678;52.126;20.664;2022-10-04T18:37:17;100794.47;;;10.29;90.43
55759;BME280;41678;52.126;20.664;2022-10-04T18:42:41;100798.84;;;10.25;90.22
55759;BME280;41678;52.126;20.664;2022-10-04T18:48:05;100813.78;;;10.20;90.14
55759;BME280;41678;52.126;20.664;2022-10-04T18:59:18;100821.69;;;10.11;90.20
55759;BME280;41678;52.126;20.664;2022-10-04T19:05:08;100836.59;;;10.07;90.35
55759;BME280;41678;52.126;20.664;2022-10-04T19:10:43;100835.72;;;10.00;90.58
55759;BME280;41678;52.126;20.664;2022-10-04T19:21:57;100844.50;;;9.93;90.17
55759;BME280;41678;52.126;20.664;2022-10-04T19:27:25;100830.47;;;9.88;90.16
55759;BME280;41678;52.126;20.664;2022-10-04T19:38:54;100846.25;;;9.82;90.31
55759;BME280;41678;52.126;20.664;2022-10-04T19:55:37;100862.91;;;9.74;90.40
55759;BME280;41678;52.126;20.664;2022-10-04T20:01:13;100873.41;;;9.67;90.84
55759;BME280;41678;52.126;20.664;2022-10-04T20:06:34;100874.28;;;9.64;90.59
55759;BME280;41678;52.126;20.664;2022-10-04T20:11:57;100876.88;;;9.55;90.55
55759;BME280;41678;52.126;20.664;2022-10-04T20:17:29;100889.16;;;9.54;90.71
55759;BME280;41678;52.126;20.664;2022-10-04T20:33:46;100900.53;;;9.45;90.56
55759;BME280;41678;52.126;20.664;2022-10-04T20:55:48;100902.25;;;9.37;90.34
55759;BME280;41678;52.126;20.664;2022-10-04T21:01:25;100915.38;;;9.35;90.99
55759;BME280;41678;52.126;20.664;2022-10-04T21:06:55;100922.38;;;9.29;90.70
55759;BME280;41678;52.126;20.664;2022-10-04T21:12:36;100913.56;;;9.24;90.77
55759;BME280;41678;52.126;20.664;2022-10-04T21:23:31;100917.94;;;9.18;90.65
55759;BME280;41678;52.126;20.664;2022-10-04T21:28:56;100914.44;;;9.13;90.70
55759;BME280;41678;52.126;20.664;2022-10-04T21:34:16;100911.78;;;9.09;90.88
55759;BME280;41678;52.126;20.664;2022-10-04T21:39:35;100910.00;;;9.06;90.56
55759;BME280;41678;52.126;20.664;2022-10-04T21:44:55;100897.72;;;9.02;90.85
55759;BME280;41678;52.126;20.664;2022-10-04T21:50:15;100903.81;;;8.95;91.07
55759;BME280;41678;52.126;20.664;2022-10-04T21:55:34;100902.91;;;8.89;90.87
55759;BME280;41678;52.126;20.664;2022-10-04T22:00:54;100918.69;;;8.91;90.79
55759;BME280;41678;52.126;20.664;2022-10-04T22:06:14;100906.41;;;8.85;90.84
55759;BME280;41678;52.126;20.664;2022-10-04T22:11:35;100921.28;;;8.83;90.79
55759;BME280;41678;52.126;20.664;2022-10-04T22:16:55;100922.09;;;8.76;90.89
55759;BME280;41678;52.126;20.664;2022-10-04T22:22:15;100927.31;;;8.71;90.77
55759;BME280;41678;52.126;20.664;2022-10-04T22:27:35;100924.63;;;8.63;90.68
55759;BME280;41678;52.126;20.664;2022-10-04T22:32:57;100941.25;;;8.62;90.87
55759;BME280;41678;52.126;20.664;2022-10-04T22:38:18;100957.00;;;8.61;91.09
55759;BME280;41678;52.126;20.664;2022-10-04T22:43:37;100950.84;;;8.57;90.98
55759;BME280;41678;52.126;20.664;2022-10-04T22:48:57;100948.19;;;8.56;90.84
55759;BME280;41678;52.126;20.664;2022-10-04T22:54:30;100956.13;;;8.59;90.66
55759;BME280;41678;52.126;20.664;2022-10-04T22:59:51;100957.84;;;8.58;91.35
55759;BME280;41678;52.126;20.664;2022-10-04T23:05:16;100959.63;;;8.59;90.97
55759;BME280;41678;52.126;20.664;2022-10-04T23:10:36;100959.63;;;8.59;91.10
55759;BME280;41678;52.126;20.664;2022-10-04T23:15:58;100937.69;;;8.51;90.97
55759;BME280;41678;52.126;20.664;2022-10-04T23:21:22;100947.34;;;8.55;90.92
55759;BME280;41678;52.126;20.664;2022-10-04T23:26:44;100953.47;;;8.54;90.67
55759;BME280;41678;52.126;20.664;2022-10-04T23:32:12;100948.22;;;8.54;91.03
55759;BME280;41678;52.126;20.664;2022-10-04T23:37:32;100956.94;;;8.55;91.14
55759;BME280;41678;52.126;20.664;2022-10-04T23:42:55;100935.94;;;8.52;90.93
55759;BME280;41678;52.126;20.664;2022-10-04T23:48:20;100945.59;;;8.54;90.74
55759;BME280;41678;52.126;20.664;2022-10-04T23:53:42;100945.59;;;8.54;91.02
55759;BME280;41678;52.126;20.664;2022-10-04T23:59:03;100936.84;;;8.55;90.96
